createdAt,value
2023-09-12T00:02:32.017Z,15.05
2023-09-12T00:07:33.994Z,14.93
2023-09-12T00:12:35.793Z,14.95
2023-09-12T00:17:39.238Z,14.95
2023-09-12T00:22:41.381Z,14.86
2023-09-12T00:27:43.732Z,14.80
2023-09-12T00:32:47.433Z,14.71
2023-09-12T00:37:49.183Z,14.71
2023-09-12T00:42:51.313Z,14.64
2023-09-12T00:47:55.507Z,14.50
2023-09-12T00:52:57.636Z,14.50
2023-09-12T00:58:00.315Z,14.56
2023-09-12T01:03:05.109Z,14.49
2023-09-12T01:08:07.415Z,14.43
2023-09-12T01:13:09.745Z,14.32
2023-09-12T01:18:13.181Z,14.30
2023-09-12T01:23:35.141Z,14.28
2023-09-12T01:28:43.121Z,14.18
2023-09-12T01:33:45.641Z,14.13
2023-09-12T01:38:47.888Z,14.13
2023-09-12T01:43:52.733Z,14.05
2023-09-12T01:48:56.715Z,13.99
2023-09-12T01:53:59.777Z,13.92
2023-09-12T01:59:03.506Z,13.93
2023-09-12T02:04:05.703Z,13.92
2023-09-12T02:09:07.765Z,13.85
2023-09-12T02:14:11.571Z,13.87
2023-09-12T02:19:13.766Z,13.73
2023-09-12T02:24:15.924Z,13.75
2023-09-12T02:29:19.170Z,13.64
2023-09-12T02:34:21.252Z,13.63
2023-09-12T02:39:23.306Z,13.56
2023-09-12T02:44:26.881Z,13.52
2023-09-12T02:49:29.150Z,13.47
2023-09-12T02:54:31.320Z,13.45
2023-09-12T02:59:35.303Z,13.39
2023-09-12T03:04:37.034Z,13.34
2023-09-12T03:09:39.541Z,13.29
2023-09-12T03:14:43.007Z,13.26
2023-09-12T03:19:45.092Z,13.23
2023-09-12T03:24:47.282Z,13.14
2023-09-12T03:29:50.682Z,13.14
2023-09-12T03:34:52.827Z,13.13
2023-09-12T03:39:54.864Z,13.11
2023-09-12T03:44:58.380Z,13.11
2023-09-12T03:50:00.164Z,13.16
2023-09-12T03:55:02.037Z,13.10
2023-09-12T04:00:06.855Z,13.07
2023-09-12T04:05:09.365Z,13.07
2023-09-12T04:10:11.497Z,13.14
2023-09-12T04:15:15.531Z,13.20
2023-09-12T04:20:17.754Z,13.18
2023-09-12T04:25:20.259Z,13.16
2023-09-12T04:30:23.877Z,13.09
2023-09-12T04:35:25.987Z,13.11
2023-09-12T04:40:28.201Z,13.65
2023-09-12T04:45:34.353Z,13.45
2023-09-12T04:50:42.023Z,13.45
2023-09-12T04:55:44.403Z,13.57
2023-09-12T05:00:48.283Z,13.81
2023-09-12T05:05:51.319Z,14.07
2023-09-12T05:10:53.650Z,14.34
2023-09-12T05:15:58.559Z,14.63
2023-09-12T05:21:00.683Z,14.94
2023-09-12T05:26:02.483Z,15.22
2023-09-12T05:31:06.211Z,15.49
2023-09-12T05:36:08.693Z,15.91
2023-09-12T05:41:10.460Z,16.31
2023-09-12T05:46:13.944Z,16.66
2023-09-12T05:51:16.221Z,18.00
2023-09-12T05:56:18.383Z,19.02
2023-09-12T06:01:21.970Z,19.74
2023-09-12T06:06:24.208Z,18.99
2023-09-12T06:11:26.187Z,18.11
2023-09-12T06:16:29.317Z,18.82
2023-09-12T06:21:31.082Z,18.52
2023-09-12T06:26:33.170Z,19.55
2023-09-12T06:31:36.733Z,19.64
2023-09-12T06:36:39.523Z,19.66
2023-09-12T06:41:41.652Z,19.66
2023-09-12T06:46:44.776Z,19.92
2023-09-12T06:51:47.773Z,20.11
2023-09-12T06:56:50.759Z,20.45
2023-09-12T07:01:54.105Z,20.68
2023-09-12T07:06:55.892Z,20.79
2023-09-12T07:11:57.965Z,21.10
2023-09-12T07:17:01.131Z,21.53
2023-09-12T07:22:02.923Z,21.71
2023-09-12T07:27:05.543Z,21.94
2023-09-12T07:32:09.148Z,22.25
2023-09-12T07:37:11.252Z,22.70
2023-09-12T07:42:13.652Z,22.79
2023-09-12T07:47:17.190Z,22.94
2023-09-12T07:52:19.386Z,23.24
2023-09-12T07:57:21.540Z,23.46
2023-09-12T08:02:24.911Z,23.86
2023-09-12T08:07:27.041Z,23.93
2023-09-12T08:12:29.179Z,24.51
2023-09-12T08:17:33.086Z,24.49
2023-09-12T08:22:34.835Z,24.55
2023-09-12T08:27:36.879Z,24.82
2023-09-12T08:32:40.498Z,25.07
2023-09-12T08:37:43.315Z,25.64
2023-09-12T08:42:46.076Z,25.37
2023-09-12T08:47:52.468Z,26.04
2023-09-12T08:53:06.360Z,25.85
2023-09-12T08:58:09.951Z,26.16
2023-09-12T09:03:15.084Z,26.06
2023-09-12T09:08:18.859Z,26.15
2023-09-12T09:13:21.050Z,26.17
2023-09-12T09:18:24.272Z,26.12
2023-09-12T09:23:26.301Z,26.11
2023-09-12T09:28:28.741Z,28.60
2023-09-12T09:33:36.837Z,28.92
2023-09-12T09:38:38.962Z,30.54
2023-09-12T09:43:41.641Z,28.97
2023-09-12T09:48:50.536Z,31.35
2023-09-12T09:53:52.918Z,31.23
2023-09-12T09:58:56.745Z,31.66
2023-09-12T10:04:02.214Z,33.61
2023-09-12T10:09:07.870Z,33.60
2023-09-12T10:14:10.826Z,33.91
2023-09-12T10:19:17.802Z,32.32
2023-09-12T10:24:21.234Z,32.67
2023-09-12T10:29:23.377Z,32.10
2023-09-12T10:34:27.283Z,33.82
2023-09-12T10:39:30.392Z,32.87
2023-09-12T10:44:32.950Z,33.42
2023-09-12T10:49:36.160Z,32.89
2023-09-12T10:54:39.182Z,33.05
2023-09-12T11:00:11.932Z,31.39
2023-09-12T11:05:51.192Z,31.27
2023-09-12T11:11:18.448Z,30.97
2023-09-12T11:16:20.197Z,30.77
2023-09-12T11:21:33.341Z,31.05
2023-09-12T11:26:35.334Z,30.58
2023-09-12T11:31:37.581Z,31.37
2023-09-12T11:36:42.729Z,30.20
2023-09-12T11:41:44.591Z,30.03
2023-09-12T11:46:49.098Z,31.08
2023-09-12T11:51:53.844Z,31.07
2023-09-12T11:56:56.378Z,31.30
2023-09-12T12:01:59.102Z,31.29
2023-09-12T12:07:03.705Z,31.13
2023-09-12T12:12:11.154Z,30.85
2023-09-12T12:17:13.849Z,30.62
2023-09-12T12:22:17.410Z,31.05
2023-09-12T12:27:19.892Z,31.26
2023-09-12T12:32:22.206Z,31.22
2023-09-12T12:37:30.736Z,31.20
2023-09-12T12:42:48.311Z,31.47
2023-09-12T12:47:59.939Z,31.70
2023-09-12T12:53:03.401Z,32.50
2023-09-12T12:58:05.624Z,32.25
2023-09-12T13:03:07.809Z,31.57
2023-09-12T13:08:11.183Z,31.61
2023-09-12T13:13:13.335Z,31.44
2023-09-12T13:18:15.396Z,32.14
2023-09-12T13:23:18.459Z,31.43
2023-09-12T13:28:20.835Z,31.93
2023-09-12T13:33:23.576Z,32.48
2023-09-12T13:38:27.192Z,32.45
2023-09-12T13:43:29.355Z,32.62
2023-09-12T13:48:31.511Z,32.61
2023-09-12T13:53:34.992Z,32.38
2023-09-12T13:58:40.657Z,31.75
2023-09-12T14:03:44.710Z,30.87
2023-09-12T14:08:48.796Z,31.52
2023-09-12T14:13:59.443Z,31.87
2023-09-12T14:19:11.623Z,31.55
2023-09-12T14:24:15.611Z,30.83
2023-09-12T14:29:18.065Z,30.06
2023-09-12T14:34:19.999Z,28.96
2023-09-12T14:39:23.332Z,28.64
2023-09-12T14:44:25.472Z,28.03
2023-09-12T14:49:27.900Z,28.60
2023-09-12T14:54:31.460Z,28.26
2023-09-12T14:59:33.804Z,27.86
2023-09-12T15:04:35.798Z,27.81
2023-09-12T15:09:39.169Z,27.56
2023-09-12T15:14:40.943Z,27.18
2023-09-12T15:19:43.162Z,27.05
2023-09-12T15:24:46.979Z,26.68
2023-09-12T15:29:49.224Z,26.51
2023-09-12T15:34:51.317Z,27.30
2023-09-12T15:39:55.272Z,27.38
2023-09-12T15:45:02.149Z,27.71
2023-09-12T15:50:05.806Z,28.03
2023-09-12T15:55:11.904Z,27.73
2023-09-12T16:00:14.760Z,27.42
2023-09-12T16:05:17.112Z,27.52
2023-09-12T16:10:20.840Z,27.22
2023-09-12T16:15:23.253Z,26.95
2023-09-12T16:20:25.346Z,26.87
2023-09-12T16:25:28.837Z,26.80
2023-09-12T16:30:31.181Z,26.49
2023-09-12T16:35:33.222Z,26.04
2023-09-12T16:40:37.338Z,26.06
2023-09-12T16:45:39.742Z,26.08
2023-09-12T16:50:41.578Z,26.08
2023-09-12T16:55:44.775Z,25.78
2023-09-12T17:00:46.982Z,25.58
2023-09-12T17:05:48.949Z,25.57
2023-09-12T17:10:52.882Z,25.39
2023-09-12T17:15:55.641Z,25.14
2023-09-12T17:20:57.947Z,24.70
2023-09-12T17:26:01.450Z,24.75
2023-09-12T17:31:03.781Z,24.66
2023-09-12T17:36:06.291Z,24.68
2023-09-12T17:41:09.427Z,24.47
2023-09-12T17:46:12.263Z,24.59
2023-09-12T17:51:14.165Z,24.13
2023-09-12T17:56:17.609Z,23.78
2023-09-12T18:01:19.801Z,23.58
2023-09-12T18:06:22.790Z,23.69
2023-09-12T18:11:26.786Z,23.46
2023-09-12T18:16:29.780Z,22.86
2023-09-12T18:21:31.822Z,22.67
2023-09-12T18:26:35.267Z,23.20
2023-09-12T18:31:38.169Z,23.01
2023-09-12T18:36:39.998Z,23.42
2023-09-12T18:41:43.173Z,23.07
2023-09-12T18:46:45.219Z,22.89
2023-09-12T18:51:47.155Z,21.98
2023-09-12T18:56:51.635Z,21.66
2023-09-12T19:01:54.398Z,21.26
2023-09-12T19:06:57.028Z,21.01
2023-09-12T19:12:00.802Z,20.84
2023-09-12T19:17:03.603Z,20.82
2023-09-12T19:22:06.166Z,20.59
2023-09-12T19:27:09.274Z,20.48
2023-09-12T19:32:11.005Z,20.30
2023-09-12T19:37:13.692Z,20.16
2023-09-12T19:42:17.846Z,20.07
2023-09-12T19:47:21.019Z,20.00
2023-09-12T19:52:22.795Z,19.83
2023-09-12T19:57:25.842Z,20.03
2023-09-12T20:02:28.008Z,20.19
2023-09-12T20:07:29.814Z,20.06
2023-09-12T20:12:33.505Z,19.91
2023-09-12T20:17:35.376Z,19.72
2023-09-12T20:22:37.133Z,19.69
2023-09-12T20:27:40.346Z,19.70
2023-09-12T20:32:57.006Z,19.67
2023-09-12T20:38:00.761Z,19.94
2023-09-12T20:43:04.193Z,20.07
2023-09-12T20:48:06.591Z,19.97
2023-09-12T20:53:08.729Z,20.13
2023-09-12T20:58:11.818Z,20.06
2023-09-12T21:03:14.211Z,19.88
2023-09-12T21:08:16.463Z,19.63
2023-09-12T21:13:20.189Z,19.37
2023-09-12T21:18:22.565Z,19.20
2023-09-12T21:23:24.813Z,19.21
2023-09-12T21:28:28.412Z,19.14
2023-09-12T21:33:30.106Z,19.06
2023-09-12T21:38:31.958Z,19.07
2023-09-12T21:43:35.430Z,19.09
2023-09-12T21:48:37.563Z,18.87
2023-09-12T21:53:39.676Z,18.66
2023-09-12T21:58:43.250Z,18.47
2023-09-12T22:03:46.060Z,18.39
2023-09-12T22:08:48.133Z,18.18
2023-09-12T22:13:51.914Z,18.07
2023-09-12T22:18:53.712Z,18.00
2023-09-12T22:23:55.816Z,17.90
2023-09-12T22:28:58.872Z,17.78
2023-09-12T22:34:00.914Z,17.70
2023-09-12T22:39:02.719Z,17.57
2023-09-12T22:44:07.269Z,17.56
2023-09-12T22:49:09.747Z,17.53
2023-09-12T22:54:11.503Z,17.43
2023-09-12T22:59:14.853Z,17.37
2023-09-12T23:04:17.059Z,17.32
2023-09-12T23:09:19.107Z,17.41
2023-09-12T23:14:22.718Z,17.57
2023-09-12T23:19:24.879Z,17.58
2023-09-12T23:24:27.111Z,17.60
2023-09-12T23:29:30.619Z,17.79
2023-09-12T23:34:32.702Z,17.83
2023-09-12T23:39:34.840Z,17.83
2023-09-12T23:44:38.574Z,17.90
2023-09-12T23:49:40.670Z,17.95
2023-09-12T23:54:42.959Z,18.04
2023-09-12T23:59:46.555Z,18.01
